createdAt,value
2022-11-16T00:01:39.512Z,67608.47
2022-11-16T00:04:07.135Z,67613.88
2022-11-16T00:06:34.541Z,67606.94
2022-11-16T00:09:21.142Z,67612.19
2022-11-16T00:11:54.035Z,67605.44
2022-11-16T00:14:24.000Z,67606.94
2022-11-16T00:16:51.716Z,67609.56
2022-11-16T00:19:19.571Z,67606.03
2022-11-16T00:21:47.271Z,67612.75
2022-11-16T00:24:16.976Z,67613.72
2022-11-16T00:26:45.172Z,67607.88
2022-11-16T00:29:21.153Z,67602.09
2022-11-16T00:31:49.942Z,67602.66
2022-11-16T00:34:18.517Z,67605.81
2022-11-16T00:36:47.104Z,67609.75
2022-11-16T00:39:16.533Z,67613.50
2022-11-16T00:41:47.326Z,67617.25
2022-11-16T00:44:15.246Z,67615.22
2022-11-16T00:46:43.039Z,67615.78
2022-11-16T00:49:10.987Z,67619.53
2022-11-16T00:51:38.255Z,67610.34
2022-11-16T00:54:07.217Z,67608.28
2022-11-16T00:56:36.616Z,67612.59
2022-11-16T00:59:05.679Z,67613.50
2022-11-16T01:01:33.421Z,67603.56
2022-11-16T01:04:00.932Z,67601.88
2022-11-16T01:06:28.216Z,67601.88
2022-11-16T01:08:55.868Z,67602.44
2022-11-16T01:11:43.290Z,67611.25
2022-11-16T01:14:11.575Z,67605.25
2022-11-16T01:16:39.234Z,67611.25
2022-11-16T01:19:07.813Z,67610.34
2022-11-16T01:21:35.328Z,67607.50
2022-11-16T01:24:02.761Z,67612.38
2022-11-16T01:26:30.426Z,67613.16
2022-11-16T01:29:00.826Z,67612.59
2022-11-16T01:31:32.460Z,67610.34
2022-11-16T01:34:02.084Z,67607.88
2022-11-16T01:36:30.174Z,67608.06
2022-11-16T01:39:00.193Z,67614.06
2022-11-16T01:41:33.756Z,67604.69
2022-11-16T01:44:33.330Z,67605.81
2022-11-16T01:47:27.672Z,67607.50
2022-11-16T01:50:09.772Z,67612.00
2022-11-16T01:52:43.970Z,67614.47
2022-11-16T01:55:12.607Z,67611.81
2022-11-16T01:57:59.462Z,67608.84
2022-11-16T02:00:28.878Z,67609.75
2022-11-16T02:03:10.774Z,67613.91
2022-11-16T02:05:53.534Z,67619.34
2022-11-16T02:08:46.022Z,67620.13
2022-11-16T02:11:35.004Z,67620.47
2022-11-16T02:14:27.425Z,67628.75
2022-11-16T02:17:04.769Z,67625.91
2022-11-16T02:19:50.321Z,67624.44
2022-11-16T02:22:42.378Z,67629.84
2022-11-16T02:25:27.711Z,67628.38
2022-11-16T02:28:29.065Z,67621.81
2022-11-16T02:31:00.317Z,67627.03
2022-11-16T02:33:34.985Z,67622.75
2022-11-16T02:36:07.821Z,67630.06
2022-11-16T02:38:40.253Z,67634.94
2022-11-16T02:41:20.193Z,67634.56
2022-11-16T02:44:27.055Z,67634.94
2022-11-16T02:46:59.652Z,67632.88
2022-11-16T02:49:29.767Z,67630.84
2022-11-16T02:51:59.225Z,67636.28
2022-11-16T02:54:27.064Z,67640.03
2022-11-16T02:57:03.018Z,67631.41
2022-11-16T02:59:42.204Z,67647.56
2022-11-16T03:02:09.484Z,67640.44
2022-11-16T03:04:45.596Z,67647.34
2022-11-16T03:07:17.447Z,67647.00
2022-11-16T03:09:49.011Z,67645.66
2022-11-16T03:12:23.177Z,67638.53
2022-11-16T03:14:56.454Z,67644.94
2022-11-16T03:17:41.651Z,67645.09
2022-11-16T03:20:20.820Z,67649.81
2022-11-16T03:23:14.348Z,67656.38
2022-11-16T03:25:52.566Z,67639.84
2022-11-16T03:28:25.589Z,67647.56
2022-11-16T03:31:04.292Z,67652.97
2022-11-16T03:33:56.261Z,67653.56
2022-11-16T03:36:35.327Z,67663.34
2022-11-16T03:39:09.505Z,67666.72
2022-11-16T03:41:40.479Z,67669.34
2022-11-16T03:44:10.695Z,67680.63
2022-11-16T03:46:42.828Z,67688.53
2022-11-16T03:49:13.046Z,67688.34
2022-11-16T03:51:41.063Z,67694.94
2022-11-16T03:54:08.545Z,67702.63
2022-11-16T03:56:36.841Z,67698.69
2022-11-16T03:59:04.351Z,67700.94
2022-11-16T04:01:31.972Z,67703.03
2022-11-16T04:04:00.631Z,67712.22
2022-11-16T04:06:47.887Z,67696.28
2022-11-16T04:09:34.019Z,67700.00
2022-11-16T04:12:19.899Z,67697.75
2022-11-16T04:15:06.501Z,67703.41
2022-11-16T04:17:54.771Z,67703.19
2022-11-16T04:20:40.868Z,67712.44
2022-11-16T04:23:32.432Z,67714.09
2022-11-16T04:26:00.539Z,67713.53
2022-11-16T04:28:32.335Z,67705.84
2022-11-16T04:34:33.735Z,67710.16
2022-11-16T04:37:21.347Z,67708.13
2022-11-16T04:39:49.498Z,67711.09
2022-11-16T04:42:20.090Z,67711.84
2022-11-16T04:45:09.514Z,67707.34
2022-11-16T04:47:50.945Z,67703.94
2022-11-16T04:50:21.152Z,67700.56
2022-11-16T04:52:50.625Z,67711.09
2022-11-16T04:55:19.257Z,67697.94
2022-11-16T04:57:50.666Z,67703.41
2022-11-16T05:00:18.345Z,67705.09
2022-11-16T05:02:46.244Z,67717.50
2022-11-16T05:05:14.110Z,67716.72
2022-11-16T05:07:43.664Z,67711.09
2022-11-16T05:10:17.666Z,67711.09
2022-11-16T05:12:45.453Z,67713.34
2022-11-16T05:15:12.999Z,67709.97
2022-11-16T05:17:40.378Z,67706.56
2022-11-16T05:20:31.836Z,67709.03
2022-11-16T05:23:04.499Z,67716.16
2022-11-16T05:25:37.279Z,67714.47
2022-11-16T05:28:08.017Z,67717.31
2022-11-16T05:30:39.927Z,67712.44
2022-11-16T05:33:07.719Z,67716.38
2022-11-16T05:35:39.538Z,67726.31
2022-11-16T05:38:08.282Z,67719.56
2022-11-16T05:40:41.169Z,67713.00
2022-11-16T05:43:08.599Z,67711.28
2022-11-16T05:45:43.189Z,67723.69
2022-11-16T05:48:12.219Z,67718.06
2022-11-16T05:50:42.806Z,67721.03
2022-11-16T05:53:20.602Z,67714.09
2022-11-16T05:55:49.074Z,67711.84
2022-11-16T05:58:18.129Z,67716.72
2022-11-16T06:00:49.792Z,67704.72
2022-11-16T06:03:18.458Z,67704.72
2022-11-16T06:05:45.969Z,67700.78
2022-11-16T06:08:18.823Z,67708.47
2022-11-16T06:10:48.816Z,67711.66
2022-11-16T06:13:16.761Z,67712.22
2022-11-16T06:15:56.055Z,67711.28
2022-11-16T06:18:24.077Z,67707.34
2022-11-16T06:20:51.510Z,67702.09
2022-11-16T06:23:21.355Z,67705.09
2022-11-16T06:25:56.042Z,67710.53
2022-11-16T06:28:26.821Z,67717.84
2022-11-16T06:30:55.821Z,67703.59
2022-11-16T06:33:28.589Z,67707.53
2022-11-16T06:35:59.924Z,67713.91
2022-11-16T06:38:28.018Z,67720.50
2022-11-16T06:40:58.063Z,67719.75
2022-11-16T06:43:28.000Z,67708.31
2022-11-16T06:46:00.138Z,67718.06
2022-11-16T06:48:27.487Z,67725.97
2022-11-16T06:50:56.384Z,67727.09
2022-11-16T06:53:28.919Z,67723.69
2022-11-16T06:56:11.741Z,67720.13
2022-11-16T06:58:46.513Z,67716.94
2022-11-16T07:01:16.725Z,67713.53
2022-11-16T07:03:45.870Z,67716.16
2022-11-16T07:06:14.705Z,67714.69
2022-11-16T07:08:45.090Z,67723.69
2022-11-16T07:11:15.470Z,67726.16
2022-11-16T07:13:43.687Z,67713.00
2022-11-16T07:16:12.880Z,67718.81
2022-11-16T07:18:46.174Z,67725.38
2022-11-16T07:21:16.691Z,67722.78
2022-11-16T07:23:45.814Z,67731.41
2022-11-16T07:26:18.525Z,67732.91
2022-11-16T07:28:51.868Z,67727.44
2022-11-16T07:31:22.025Z,67727.66
2022-11-16T07:34:09.461Z,67734.03
2022-11-16T07:36:45.612Z,67736.13
2022-11-16T07:39:13.334Z,67738.38
2022-11-16T07:41:45.327Z,67739.50
2022-11-16T07:44:26.831Z,67739.31
2022-11-16T07:47:10.080Z,67745.34
2022-11-16T07:49:38.025Z,67751.91
2022-11-16T07:52:15.630Z,67754.94
2022-11-16T07:54:51.751Z,67761.88
2022-11-16T07:57:21.708Z,67748.53
2022-11-16T07:59:50.057Z,67761.88
2022-11-16T08:02:20.046Z,67762.06
2022-11-16T08:04:50.265Z,67754.16
2022-11-16T08:07:20.885Z,67754.75
2022-11-16T08:09:56.463Z,67749.09
2022-11-16T08:12:25.802Z,67749.09
2022-11-16T08:14:54.626Z,67760.75
2022-11-16T08:17:22.050Z,67762.06
2022-11-16T08:19:49.792Z,67757.00
2022-11-16T08:22:17.413Z,67753.63
2022-11-16T08:24:46.615Z,67749.09
2022-11-16T08:27:17.076Z,67753.81
2022-11-16T08:29:46.837Z,67767.72
2022-11-16T08:32:14.218Z,67773.72
2022-11-16T08:34:41.564Z,67763.97
2022-11-16T08:37:09.026Z,67777.13
2022-11-16T08:39:40.482Z,67780.72
2022-11-16T08:42:09.106Z,67786.16
2022-11-16T08:44:37.603Z,67779.75
2022-11-16T08:47:09.992Z,67791.22
2022-11-16T08:49:48.187Z,67789.53
2022-11-16T08:52:18.553Z,67815.16
2022-11-16T08:54:46.512Z,67819.66
2022-11-16T08:57:14.441Z,67821.91
2022-11-16T08:59:43.740Z,67833.97
2022-11-16T09:02:14.164Z,67833.97
2022-11-16T09:04:42.435Z,67827.56
2022-11-16T09:07:10.278Z,67833.78
2022-11-16T09:09:46.608Z,67833.78
2022-11-16T09:12:16.541Z,67850.56
2022-11-16T09:14:44.054Z,67870.53
2022-11-16T09:17:11.659Z,67843.41
2022-11-16T09:19:39.212Z,67842.25
2022-11-16T09:22:06.666Z,67843.41
2022-11-16T09:24:34.691Z,67856.19
2022-11-16T09:27:02.107Z,67860.72
2022-11-16T09:29:29.498Z,67854.13
2022-11-16T09:31:58.441Z,67844.38
2022-11-16T09:34:26.003Z,67852.66
2022-11-16T09:36:53.528Z,67840.78
2022-11-16T09:39:31.183Z,67847.94
2022-11-16T09:42:26.849Z,67873.56
2022-11-16T09:45:00.434Z,67887.09
2022-11-16T09:47:49.950Z,67898.56
2022-11-16T09:50:26.720Z,67888.03
2022-11-16T09:52:58.530Z,67875.22
2022-11-16T09:55:33.765Z,67864.66
2022-11-16T09:58:11.982Z,67873.56
2022-11-16T10:00:44.380Z,67864.28
2022-11-16T10:03:14.873Z,67870.34
2022-11-16T10:05:52.225Z,67872.78
2022-11-16T10:08:47.031Z,67875.03
2022-11-16T10:11:51.579Z,67881.81
2022-11-16T10:14:39.777Z,67911.97
2022-11-16T10:17:55.003Z,67895.38
2022-11-16T10:21:00.351Z,67895.94
2022-11-16T10:23:27.770Z,67900.47
2022-11-16T10:26:16.866Z,67903.28
2022-11-16T10:29:06.513Z,67935.31
2022-11-16T10:31:57.105Z,67916.84
2022-11-16T10:34:55.944Z,67906.13
2022-11-16T10:37:30.745Z,67913.66
2022-11-16T10:39:58.945Z,67914.41
2022-11-16T10:42:35.158Z,67919.13
2022-11-16T10:45:24.302Z,67924.75
2022-11-16T10:48:04.268Z,67931.34
2022-11-16T10:50:46.082Z,67902.22
2022-11-16T10:53:28.398Z,67924.75
2022-11-16T10:56:31.997Z,67915.16
2022-11-16T10:59:05.895Z,67924.19
2022-11-16T11:01:44.728Z,67938.88
2022-11-16T11:04:27.368Z,67940.59
2022-11-16T11:06:57.602Z,67917.97
2022-11-16T11:09:37.112Z,67920.59
2022-11-16T11:12:32.869Z,67905.00
2022-11-16T11:15:12.552Z,67897.44
2022-11-16T11:17:42.391Z,67917.97
2022-11-16T11:20:16.191Z,67904.63
2022-11-16T11:22:49.511Z,67897.44
2022-11-16T11:25:24.531Z,67901.38
2022-11-16T11:28:07.767Z,67904.41
2022-11-16T11:30:35.890Z,67914.94
2022-11-16T11:33:11.447Z,67925.88
2022-11-16T11:35:39.028Z,67940.59
2022-11-16T11:38:08.346Z,67942.84
2022-11-16T11:40:36.327Z,67951.34
2022-11-16T11:43:05.855Z,67944.53
2022-11-16T11:45:48.557Z,67947.34
2022-11-16T11:48:34.315Z,67960.94
2022-11-16T11:51:11.039Z,67936.63
2022-11-16T11:53:41.587Z,67943.59
2022-11-16T11:56:12.428Z,67948.31
2022-11-16T11:58:41.857Z,67955.47
2022-11-16T12:01:25.007Z,67955.28
2022-11-16T12:04:13.270Z,67958.66
2022-11-16T12:06:57.772Z,67969.03
2022-11-16T12:09:54.793Z,68001.84
2022-11-16T12:12:53.073Z,67994.28
2022-11-16T12:15:43.412Z,67993.38
2022-11-16T12:18:32.662Z,67980.72
2022-11-16T12:21:14.525Z,67992.59
2022-11-16T12:23:52.189Z,67986.75
2022-11-16T12:26:44.923Z,67977.88
2022-11-16T12:29:43.404Z,67989.75
2022-11-16T12:32:19.819Z,67993.75
2022-11-16T12:35:06.137Z,68001.84
2022-11-16T12:37:58.340Z,68001.06
2022-11-16T12:40:53.972Z,68004.47
2022-11-16T12:43:40.533Z,68001.66
2022-11-16T12:46:23.918Z,67999.94
2022-11-16T12:49:03.448Z,68006.34
2022-11-16T12:51:43.272Z,68019.38
2022-11-16T12:54:31.959Z,68025.97
2022-11-16T12:57:42.822Z,68034.63
2022-11-16T13:00:14.268Z,68027.66
2022-11-16T13:02:57.105Z,68036.72
2022-11-16T13:05:42.778Z,68020.28
2022-11-16T13:08:52.163Z,68017.28
2022-11-16T13:11:37.837Z,68020.13
2022-11-16T13:14:11.994Z,68009.38
2022-11-16T13:16:39.993Z,68011.25
2022-11-16T13:19:11.961Z,68008.44
2022-11-16T13:21:56.566Z,68012.56
2022-11-16T13:24:33.453Z,68008.44
2022-11-16T13:27:37.152Z,67985.25
2022-11-16T13:30:26.191Z,67957.19
2022-11-16T13:32:56.756Z,67965.47
2022-11-16T13:35:24.458Z,67963.94
2022-11-16T13:37:52.414Z,67971.69
2022-11-16T13:40:19.819Z,67961.28
2022-11-16T13:43:10.489Z,67966.78
2022-11-16T13:45:52.980Z,67961.50
2022-11-16T13:48:25.905Z,67958.88
2022-11-16T13:51:00.465Z,67952.44
2022-11-16T13:56:28.908Z,67930.22
2022-11-16T13:58:58.663Z,67927.41
2022-11-16T14:01:46.086Z,67920.44
2022-11-16T14:04:54.093Z,67929.66
2022-11-16T14:07:32.212Z,67918.19
2022-11-16T14:10:00.574Z,67916.47
2022-11-16T14:12:39.332Z,67922.50
2022-11-16T14:15:22.109Z,67924.75
2022-11-16T14:17:59.547Z,67909.50
2022-11-16T14:20:53.464Z,67910.63
2022-11-16T14:23:48.956Z,67892.56
2022-11-16T14:26:33.606Z,67897.66
2022-11-16T14:29:39.879Z,67890.66
2022-11-16T14:32:23.622Z,67892.00
2022-11-16T14:34:55.387Z,67884.84
2022-11-16T14:37:22.940Z,67874.09
2022-11-16T14:39:53.605Z,67881.06
2022-11-16T14:42:48.127Z,67863.75
2022-11-16T14:45:29.829Z,67858.09
2022-11-16T14:48:07.056Z,67856.38
2022-11-16T14:50:40.630Z,67845.44
2022-11-16T14:53:11.065Z,67844.16
2022-11-16T14:56:03.841Z,67841.84
2022-11-16T14:58:31.293Z,67842.81
2022-11-16T15:01:14.712Z,67837.16
2022-11-16T15:03:53.827Z,67831.69
2022-11-16T15:06:23.018Z,67820.78
2022-11-16T15:08:54.987Z,67834.13
2022-11-16T15:11:49.782Z,67831.50
2022-11-16T15:14:24.835Z,67827.00
2022-11-16T15:16:55.105Z,67830.41
2022-11-16T15:19:24.504Z,67819.09
2022-11-16T15:21:53.896Z,67819.09
2022-11-16T15:24:30.656Z,67817.22
2022-11-16T15:27:09.514Z,67815.72
2022-11-16T15:29:37.214Z,67816.44
2022-11-16T15:32:05.032Z,67813.25
2022-11-16T15:34:32.843Z,67816.47
2022-11-16T15:37:00.193Z,67808.56
2022-11-16T15:39:34.128Z,67812.31
2022-11-16T15:42:04.015Z,67820.03
2022-11-16T15:44:33.440Z,67808.94
2022-11-16T15:47:03.504Z,67818.91
2022-11-16T15:49:38.124Z,67793.50
2022-11-16T15:52:06.002Z,67789.75
2022-11-16T15:54:53.975Z,67794.66
2022-11-16T15:57:23.990Z,67798.22
2022-11-16T15:59:57.265Z,67807.97
2022-11-16T16:02:30.835Z,67793.13
2022-11-16T16:04:58.471Z,67799.72
2022-11-16T16:07:59.620Z,67791.44
2022-11-16T16:10:27.306Z,67788.25
2022-11-16T16:12:57.560Z,67800.47
2022-11-16T16:15:34.185Z,67799.34
2022-11-16T16:18:03.997Z,67785.44
2022-11-16T16:20:33.156Z,67786.34
2022-11-16T16:23:16.518Z,67783.16
2022-11-16T16:25:50.132Z,67790.13
2022-11-16T16:28:18.044Z,67779.78
2022-11-16T16:30:45.613Z,67780.53
2022-11-16T16:33:19.240Z,67779.56
2022-11-16T16:35:49.869Z,67782.97
2022-11-16T16:38:17.392Z,67773.56
2022-11-16T16:40:53.599Z,67783.34
2022-11-16T16:43:22.058Z,67789.34
2022-11-16T16:45:50.009Z,67781.06
2022-11-16T16:48:17.629Z,67766.41
2022-11-16T16:50:45.880Z,67784.09
2022-11-16T16:53:14.720Z,67767.38
2022-11-16T16:55:43.701Z,67780.16
2022-11-16T16:58:12.864Z,67785.97
2022-11-16T17:00:41.194Z,67780.16
2022-11-16T17:03:09.019Z,67791.78
2022-11-16T17:05:38.706Z,67787.50
2022-11-16T17:08:07.302Z,67776.03
2022-11-16T17:10:37.084Z,67772.25
2022-11-16T17:13:04.967Z,67780.72
2022-11-16T17:15:32.437Z,67766.03
2022-11-16T17:18:00.143Z,67769.41
2022-11-16T17:20:28.013Z,67772.25
2022-11-16T17:22:55.984Z,67764.75
2022-11-16T17:25:23.277Z,67773.19
2022-11-16T17:27:50.753Z,67769.22
2022-11-16T17:30:18.415Z,67772.25
2022-11-16T17:32:47.838Z,67761.50
2022-11-16T17:35:15.297Z,67763.22
2022-11-16T17:37:42.857Z,67760.59
2022-11-16T17:40:11.787Z,67753.06
2022-11-16T17:42:43.465Z,67759.06
2022-11-16T17:45:12.059Z,67755.69
2022-11-16T17:47:39.571Z,67749.66
2022-11-16T17:50:09.344Z,67751.56
2022-11-16T17:52:37.141Z,67740.63
2022-11-16T17:55:05.127Z,67734.63
2022-11-16T17:57:32.529Z,67738.00
2022-11-16T17:59:59.990Z,67721.66
2022-11-16T18:02:27.556Z,67728.41
2022-11-16T18:04:55.211Z,67720.31
2022-11-16T18:07:23.284Z,67718.63
2022-11-16T18:09:50.901Z,67725.38
2022-11-16T18:12:18.448Z,67714.88
2022-11-16T18:15:06.447Z,67708.13
2022-11-16T18:17:34.946Z,67707.34
2022-11-16T18:20:04.861Z,67694.94
2022-11-16T18:22:32.486Z,67693.25
2022-11-16T18:25:00.119Z,67685.34
2022-11-16T18:27:27.760Z,67683.06
2022-11-16T18:29:55.435Z,67683.44
2022-11-16T18:32:23.244Z,67678.94
2022-11-16T18:34:50.716Z,67675.75
2022-11-16T18:37:18.182Z,67670.31
2022-11-16T18:39:45.856Z,67669.53
2022-11-16T18:42:13.414Z,67664.84
2022-11-16T18:44:40.802Z,67652.97
2022-11-16T18:47:08.209Z,67649.81
2022-11-16T18:49:35.941Z,67649.81
2022-11-16T18:52:03.698Z,67653.34
2022-11-16T18:54:31.080Z,67642.84
2022-11-16T18:56:58.707Z,67633.09
2022-11-16T18:59:26.183Z,67632.88
2022-11-16T19:01:53.619Z,67638.69
2022-11-16T19:04:21.246Z,67631.75
2022-11-16T19:06:48.992Z,67630.63
2022-11-16T19:09:16.561Z,67621.81
2022-11-16T19:11:45.593Z,67623.28
2022-11-16T19:14:13.661Z,67621.03
2022-11-16T19:16:49.962Z,67615.41
2022-11-16T19:19:20.676Z,67616.53
2022-11-16T19:21:48.428Z,67618.38
2022-11-16T19:24:16.293Z,67609.00
2022-11-16T19:26:45.208Z,67615.41
2022-11-16T19:29:12.964Z,67599.47
2022-11-16T19:31:40.583Z,67604.34
2022-11-16T19:34:13.118Z,67606.75
2022-11-16T19:36:40.728Z,67604.13
2022-11-16T19:39:08.493Z,67600.94
2022-11-16T19:41:36.200Z,67602.25
2022-11-16T19:44:04.117Z,67597.56
2022-11-16T19:46:32.865Z,67599.25
2022-11-16T19:49:00.784Z,67599.25
2022-11-16T19:51:30.665Z,67595.13
2022-11-16T19:54:00.822Z,67597.94
2022-11-16T19:56:29.013Z,67577.75
2022-11-16T19:58:56.832Z,67600.19
2022-11-16T20:01:30.094Z,67594.53
2022-11-16T20:04:02.335Z,67598.84
2022-11-16T20:06:33.595Z,67592.66
2022-11-16T20:09:09.075Z,67586.09
2022-11-16T20:11:39.399Z,67588.91
2022-11-16T20:14:09.241Z,67589.47
2022-11-16T20:16:39.816Z,67590.59
2022-11-16T20:19:09.021Z,67592.66
2022-11-16T20:21:41.983Z,67583.47
2022-11-16T20:24:15.183Z,67586.47
2022-11-16T20:26:45.371Z,67587.56
2022-11-16T20:29:14.725Z,67581.59
2022-11-16T20:31:44.464Z,67582.91
2022-11-16T20:34:17.861Z,67578.19
2022-11-16T20:36:47.694Z,67576.50
2022-11-16T20:39:19.938Z,67575.94
2022-11-16T20:41:48.197Z,67574.81
2022-11-16T20:44:19.739Z,67574.25
2022-11-16T20:46:47.492Z,67572.75
2022-11-16T20:49:15.361Z,67574.81
2022-11-16T20:51:42.867Z,67569.41
2022-11-16T20:54:10.345Z,67570.31
2022-11-16T20:56:38.143Z,67572.94
2022-11-16T20:59:06.159Z,67569.75
2022-11-16T21:01:34.019Z,67568.41
2022-11-16T21:04:02.768Z,67568.63
2022-11-16T21:06:31.660Z,67566.16
2022-11-16T21:09:00.057Z,67558.69
2022-11-16T21:11:30.018Z,67564.88
2022-11-16T21:14:16.149Z,67562.44
2022-11-16T21:16:44.599Z,67558.13
2022-11-16T21:19:12.782Z,67561.28
2022-11-16T21:21:41.041Z,67556.22
2022-11-16T21:24:09.906Z,67554.53
2022-11-16T21:26:37.719Z,67555.28
2022-11-16T21:29:05.465Z,67560.53
2022-11-16T21:31:50.902Z,67553.41
2022-11-16T21:34:20.564Z,67555.66
2022-11-16T21:36:52.410Z,67545.16
2022-11-16T21:39:20.073Z,67545.72
2022-11-16T21:41:47.583Z,67553.97
2022-11-16T21:44:15.168Z,67546.28
2022-11-16T21:46:42.634Z,67548.31
2022-11-16T21:49:10.583Z,67547.75
2022-11-16T21:51:37.944Z,67543.25
2022-11-16T21:54:05.485Z,67545.16
2022-11-16T21:56:32.939Z,67544.00
2022-11-16T21:59:00.661Z,67546.06
2022-11-16T22:01:48.170Z,67546.63
2022-11-16T22:04:34.167Z,67545.50
2022-11-16T22:07:20.305Z,67541.94
2022-11-16T22:09:47.926Z,67534.47
2022-11-16T22:12:15.693Z,67536.13
2022-11-16T22:14:43.085Z,67543.06
2022-11-16T22:17:10.518Z,67538.75
2022-11-16T22:19:38.022Z,67544.97
2022-11-16T22:22:05.461Z,67542.69
2022-11-16T22:24:33.126Z,67542.50
2022-11-16T22:27:00.820Z,67541.00
2022-11-16T22:29:28.352Z,67533.69
2022-11-16T22:31:55.940Z,67527.84
2022-11-16T22:34:23.529Z,67526.56
2022-11-16T22:36:50.954Z,67541.34
2022-11-16T22:39:18.277Z,67535.56
2022-11-16T22:41:45.638Z,67532.56
2022-11-16T22:44:13.006Z,67525.81
2022-11-16T22:46:40.378Z,67533.69
2022-11-16T22:49:07.940Z,67530.66
2022-11-16T22:51:35.594Z,67528.59
2022-11-16T22:54:04.956Z,67534.59
2022-11-16T22:56:33.399Z,67530.31
2022-11-16T22:59:02.574Z,67528.25
2022-11-16T23:01:30.013Z,67524.47
2022-11-16T23:03:57.901Z,67522.78
2022-11-16T23:06:25.617Z,67529.16
2022-11-16T23:08:53.081Z,67516.78
2022-11-16T23:11:44.191Z,67518.47
2022-11-16T23:14:33.188Z,67515.66
2022-11-16T23:17:00.867Z,67507.75
2022-11-16T23:19:47.086Z,67514.91
2022-11-16T23:22:36.149Z,67524.66
2022-11-16T23:25:23.642Z,67520.91
2022-11-16T23:27:51.010Z,67517.34
2022-11-16T23:30:18.548Z,67518.47
2022-11-16T23:32:46.048Z,67515.44
2022-11-16T23:35:13.982Z,67512.84
2022-11-16T23:37:58.142Z,67505.72
2022-11-16T23:40:30.736Z,67510.59
2022-11-16T23:43:17.244Z,67505.50
2022-11-16T23:45:45.473Z,67492.75
2022-11-16T23:48:15.457Z,67496.84
2022-11-16T23:50:44.107Z,67493.47
2022-11-16T23:53:12.058Z,67482.78
2022-11-16T23:55:39.816Z,67482.41
2022-11-16T23:58:11.910Z,67493.28
